createdAt,value
2019-04-27T00:00:03.827Z,6
2019-04-27T00:05:06.150Z,7
2019-04-27T00:10:08.581Z,6
2019-04-27T00:15:11.028Z,6
2019-04-27T00:20:13.532Z,6
2019-04-27T00:25:15.934Z,6
2019-04-27T00:30:18.400Z,5
2019-04-27T00:35:20.929Z,5
2019-04-27T00:40:23.608Z,5
2019-04-27T00:45:25.791Z,4
2019-04-27T00:50:28.571Z,5
2019-04-27T00:55:31.108Z,5
2019-04-27T01:00:33.698Z,4
2019-04-27T01:05:35.738Z,5
2019-04-27T01:10:38.079Z,5
2019-04-27T01:15:40.694Z,5
2019-04-27T01:20:43.059Z,5
2019-04-27T01:25:45.695Z,7
2019-04-27T01:30:48.978Z,5
2019-04-27T01:35:50.596Z,5
2019-04-27T01:40:52.886Z,7
2019-04-27T01:45:55.278Z,9
2019-04-27T01:50:59.178Z,8
2019-04-27T01:56:00.185Z,8
2019-04-27T02:01:02.642Z,8
2019-04-27T02:06:05.545Z,8
2019-04-27T02:11:09.229Z,8
2019-04-27T02:16:10.248Z,8
2019-04-27T02:21:12.869Z,9
2019-04-27T02:26:15.054Z,9
2019-04-27T02:36:20.262Z,9
2019-04-27T02:41:22.297Z,9
2019-04-27T02:46:24.989Z,10
2019-04-27T02:51:29.684Z,9
2019-04-27T02:56:30.471Z,10
2019-04-27T03:01:32.146Z,9
2019-04-27T03:06:34.703Z,9
2019-04-27T03:11:39.413Z,10
2019-04-27T03:16:39.675Z,10
2019-04-27T03:21:42.466Z,10
2019-04-27T03:26:44.636Z,10
2019-04-27T03:31:52.937Z,11
2019-04-27T03:41:52.852Z,9
2019-04-27T03:46:54.339Z,10
2019-04-27T03:51:57.100Z,9
2019-04-27T04:02:02.339Z,9
2019-04-27T04:07:04.155Z,10
2019-04-27T04:12:06.591Z,10
2019-04-27T04:17:09.827Z,9
2019-04-27T04:22:11.445Z,10
2019-04-27T04:27:14.007Z,11
2019-04-27T04:32:16.466Z,11
2019-04-27T04:37:19.567Z,11
2019-04-27T04:42:21.375Z,13
2019-04-27T04:47:23.762Z,13
2019-04-27T04:52:26.225Z,14
2019-04-27T04:57:29.888Z,13
2019-04-27T05:02:31.125Z,14
2019-04-27T05:07:33.624Z,14
2019-04-27T05:12:36.108Z,14
2019-04-27T05:17:39.854Z,15
2019-04-27T05:22:41.050Z,13
2019-04-27T05:27:43.419Z,14
2019-04-27T05:32:45.910Z,15
2019-04-27T05:37:49.174Z,15
2019-04-27T05:42:55.136Z,15
2019-04-27T05:47:53.313Z,15
2019-04-27T05:52:55.700Z,14
2019-04-27T05:57:59.125Z,16
2019-04-27T06:03:00.613Z,16
2019-04-27T06:08:03.126Z,17
2019-04-27T06:13:05.541Z,18
2019-04-27T06:18:09.259Z,17
2019-04-27T06:23:10.451Z,18
2019-04-27T06:28:13.210Z,16
2019-04-27T06:33:27.821Z,15
2019-04-27T06:38:19.030Z,14
2019-04-27T06:43:20.321Z,14
2019-04-27T06:48:22.799Z,15
2019-04-27T06:53:25.181Z,15
2019-04-27T06:58:29.227Z,15
2019-04-27T07:03:30.259Z,15
2019-04-27T07:08:32.556Z,14
2019-04-27T07:13:34.994Z,15
2019-04-27T07:18:37.536Z,14
2019-04-27T07:23:39.933Z,14
2019-04-27T07:28:42.678Z,13
2019-04-27T07:33:45.038Z,13
2019-04-27T07:43:50.032Z,12
2019-04-27T07:48:52.219Z,12
2019-04-27T07:53:54.778Z,13
2019-04-27T07:58:57.431Z,13
2019-04-27T08:03:59.674Z,14
2019-04-27T08:14:04.568Z,15
2019-04-27T08:19:07.037Z,13
2019-04-27T08:24:11.074Z,13
2019-04-27T08:29:11.881Z,14
2019-04-27T08:34:14.371Z,14
2019-04-27T08:39:18.598Z,15
2019-04-27T08:44:19.466Z,14
2019-04-27T08:49:21.922Z,13
2019-04-27T08:54:24.205Z,13
2019-04-27T08:59:26.653Z,15
2019-04-27T09:04:29.096Z,13
2019-04-27T09:09:31.558Z,14
2019-04-27T09:14:34.024Z,14
2019-04-27T09:19:36.629Z,14
2019-04-27T09:24:39.599Z,14
2019-04-27T09:29:41.397Z,14
2019-04-27T09:34:44.076Z,13
2019-04-27T09:39:46.347Z,13
2019-04-27T09:44:48.736Z,13
2019-04-27T09:49:51.253Z,13
2019-04-27T09:54:53.748Z,13
2019-04-27T09:59:56.497Z,13
2019-04-27T10:04:58.607Z,12
2019-04-27T10:10:01.158Z,12
2019-04-27T10:15:03.567Z,11
2019-04-27T10:20:06.091Z,12
2019-04-27T10:25:08.428Z,11
2019-04-27T10:30:10.938Z,11
2019-04-27T10:35:13.369Z,11
2019-04-27T10:40:16.158Z,10
2019-04-27T10:45:18.313Z,11
2019-04-27T10:50:20.744Z,11
2019-04-27T10:55:23.243Z,9
2019-04-27T11:00:26.056Z,9
2019-04-27T11:05:31.130Z,9
2019-04-27T11:10:30.579Z,10
2019-04-27T11:15:33.068Z,8
2019-04-27T11:20:36.242Z,8
2019-04-27T11:25:37.936Z,8
2019-04-27T11:30:40.407Z,9
2019-04-27T11:35:42.925Z,9
2019-04-27T11:40:46.598Z,6
2019-04-27T11:45:47.772Z,8
2019-04-27T11:50:50.540Z,7
2019-04-27T11:55:52.859Z,7
2019-04-27T12:00:55.428Z,7
2019-04-27T12:06:00.002Z,6
2019-04-27T12:11:00.054Z,5
2019-04-27T12:16:02.593Z,4
2019-04-27T12:21:06.113Z,4
2019-04-27T12:26:07.430Z,4
2019-04-27T12:31:09.886Z,4
2019-04-27T12:36:12.456Z,4
2019-04-27T12:41:14.941Z,3
2019-04-27T12:46:17.391Z,3
2019-04-27T12:51:21.005Z,3
2019-04-27T12:56:22.173Z,3
2019-04-27T13:01:25.821Z,3
2019-04-27T13:06:27.232Z,2
2019-04-27T13:11:29.575Z,2
2019-04-27T13:16:32.079Z,2
2019-04-27T13:21:36.394Z,2
2019-04-27T13:26:38.063Z,2
2019-04-27T13:31:39.485Z,2
2019-04-27T13:36:41.951Z,2
2019-04-27T13:41:46.089Z,1
2019-04-27T13:46:46.760Z,1
2019-04-27T13:51:49.310Z,1
2019-04-27T13:56:51.678Z,1
2019-04-27T14:01:54.150Z,2
2019-04-27T14:06:56.611Z,1
2019-04-27T14:11:59.069Z,2
2019-04-27T14:17:01.520Z,2
2019-04-27T14:22:04.090Z,2
2019-04-27T14:32:08.945Z,3
2019-04-27T14:37:11.366Z,2
2019-04-27T14:42:13.808Z,2
2019-04-27T14:47:16.418Z,2
2019-04-27T14:52:18.931Z,1
2019-04-27T14:57:21.228Z,1
2019-04-27T15:02:23.666Z,1
2019-04-27T15:07:26.116Z,1
2019-04-27T15:17:31.069Z,0
2019-04-27T15:22:33.506Z,1
2019-04-27T15:27:37.503Z,1
2019-04-27T15:32:40.533Z,1
2019-04-27T15:37:40.960Z,1
2019-04-27T15:42:49.488Z,1
2019-04-27T15:47:47.617Z,1
2019-04-27T15:57:50.729Z,2
2019-04-27T16:02:53.145Z,1
2019-04-27T16:07:59.061Z,1
2019-04-27T16:13:06.265Z,1
2019-04-27T16:18:00.622Z,2
2019-04-27T16:23:04.261Z,1
2019-04-27T16:28:09.493Z,0
2019-04-27T16:33:08.638Z,0
2019-04-27T16:38:10.413Z,1
2019-04-27T16:43:12.876Z,1
2019-04-27T16:48:15.328Z,1
2019-04-27T16:53:18.511Z,1
2019-04-27T16:58:20.716Z,1
2019-04-27T17:03:22.649Z,1
2019-04-27T17:08:26.503Z,1
2019-04-27T17:13:28.002Z,1
2019-04-27T17:18:30.886Z,0
2019-04-27T17:23:32.481Z,1
2019-04-27T17:28:37.449Z,0
2019-04-27T17:33:38.080Z,0
2019-04-27T17:38:42.490Z,0
2019-04-27T17:43:42.694Z,0
2019-04-27T17:48:44.818Z,0
2019-04-27T17:53:48.191Z,1
2019-04-27T17:58:52.191Z,0
2019-04-27T18:03:58.783Z,1
2019-04-27T18:08:54.838Z,2
2019-04-27T18:14:00.267Z,2
2019-04-27T18:19:07.752Z,2
2019-04-27T18:24:01.984Z,2
2019-04-27T18:29:04.395Z,4
2019-04-27T18:34:13.824Z,2
2019-04-27T18:39:13.329Z,15
2019-04-27T18:44:11.798Z,2
2019-04-27T18:49:14.280Z,2
2019-04-27T18:54:18.367Z,1
2019-04-27T18:59:19.195Z,4
2019-04-27T19:04:21.696Z,6
2019-04-27T19:09:24.057Z,7
2019-04-27T19:14:28.120Z,6
2019-04-27T19:19:29.024Z,8
2019-04-27T19:24:31.458Z,8
2019-04-27T19:29:33.895Z,13
2019-04-27T19:34:36.477Z,15
2019-04-27T19:39:39.391Z,6
2019-04-27T19:44:41.368Z,7
2019-04-27T19:49:43.758Z,3
2019-04-27T19:54:46.181Z,3
2019-04-27T19:59:49.006Z,2
2019-04-27T20:04:51.120Z,2
2019-04-27T20:09:53.594Z,1
2019-04-27T20:14:56.173Z,1
2019-04-27T20:25:01.796Z,1
2019-04-27T20:30:03.560Z,1
2019-04-27T20:35:05.869Z,1
2019-04-27T20:40:08.319Z,0
2019-04-27T20:45:11.945Z,0
2019-04-27T20:50:13.250Z,0
2019-04-27T20:55:15.664Z,0
2019-04-27T21:00:18.250Z,0
2019-04-27T21:05:21.108Z,1
2019-04-27T21:10:23.053Z,1
2019-04-27T21:15:25.556Z,0
2019-04-27T21:20:28.001Z,0
2019-04-27T21:25:31.472Z,0
2019-04-27T21:30:32.878Z,1
2019-04-27T21:35:35.390Z,0
2019-04-27T21:40:37.782Z,1
2019-04-27T21:50:42.685Z,1
2019-04-27T21:55:45.519Z,0
2019-04-27T22:00:47.657Z,1
2019-04-27T22:05:51.564Z,1
2019-04-27T22:10:52.515Z,0
2019-04-27T22:15:54.967Z,1
2019-04-27T22:20:57.463Z,2
2019-04-27T22:26:01.209Z,1
2019-04-27T22:31:02.345Z,0
2019-04-27T22:36:04.988Z,1
2019-04-27T22:41:07.252Z,1
2019-04-27T22:46:11.292Z,1
2019-04-27T22:51:12.200Z,1
2019-04-27T22:56:14.706Z,1
2019-04-27T23:01:17.099Z,1
2019-04-27T23:06:21.458Z,1
2019-04-27T23:11:22.118Z,1
2019-04-27T23:16:24.624Z,1
2019-04-27T23:21:26.933Z,1
2019-04-27T23:26:31.130Z,1
2019-04-27T23:31:32.265Z,1
2019-04-27T23:36:34.462Z,2
2019-04-27T23:41:36.880Z,1
2019-04-27T23:46:39.422Z,1
2019-04-27T23:51:41.673Z,1
2019-04-27T23:56:44.124Z,2
